デンパサール の空港の天気 - METARとTAF

デンパサール国際空港 ( WADD / DPS ) - インドネシア バリ島デンパサール
飛行場実況気象(Metar)
観測時間03/22 08:30 WITA (03/22 00:30 UTC)
風向・風速西北西 3m/s
視程10km以上
天気現象
少しの雲 雲底高度 520m
気温29℃
湿度84%
気圧1009hPa
METARWADD 220030Z 30005KT 9999 FEW017 29/26 Q1009 NOSIG
過去の天気等 Google飛行場航空写真 Wunderground天気予報

過去48時間のMETAR

飛行場予報(TAF)
発表時間: 3/22 01:00 WITA (3/21 17:00 UTC)
予報対象時間: 22日2時 WITA ~ 23日2時 WITA
風向・風速不定 3m/s
視程10km以上
全天の4割程度の雲 雲底高度 490m
22日2時 WITA ~ 22日6時 WITA に一時的に
視程5000m
天気現象雷雨
少しの積乱雲 雲底高度 460m
全天の8割程度の雲 雲底高度 490m
22日9時 WITA ~ 22日11時 WITA に徐々に
風向・風速西北西 5m/s
22日18時 WITA ~ 22日22時 WITA に一時的に
視程5000m
天気現象雷雨
少しの積乱雲 雲底高度 460m
全天の8割程度の雲 雲底高度 490m
TAF WADD 211700Z 2118/2218 VRB05KT 9999 SCT016
TEMPO 2118/2122 5000 TSRA FEW015CB BKN016
BECMG 2201/2203 30010KT
TEMPO 2210/2214 5000 TSRA FEW015CB BKN016